createdAt,value
2019-04-25T00:01:12.346Z,100225.92
2019-04-25T00:03:43.673Z,100233.14
2019-04-25T00:06:15.130Z,100236.40
2019-04-25T00:08:45.822Z,100243.46
2019-04-25T00:11:16.600Z,100240.72
2019-04-25T00:13:47.877Z,100243.14
2019-04-25T00:16:21.407Z,100250.59
2019-04-25T00:18:54.179Z,100252.03
2019-04-25T00:21:32.045Z,100247.14
2019-04-25T00:24:04.063Z,100242.20
2019-04-25T00:26:38.430Z,100235.62
2019-04-25T00:29:09.115Z,100226.70
2019-04-25T00:31:39.774Z,100226.50
2019-04-25T00:34:12.087Z,100224.77
2019-04-25T00:36:43.692Z,100223.97
2019-04-25T00:39:15.306Z,100221.87
2019-04-25T00:41:46.404Z,100221.38
2019-04-25T00:44:17.382Z,100219.13
2019-04-25T00:46:49.813Z,100209.34
2019-04-25T00:49:20.319Z,100210.86
2019-04-25T00:51:52.345Z,100207.14
2019-04-25T00:54:23.263Z,100204.76
2019-04-25T00:56:53.892Z,100203.41
2019-04-25T00:59:26.218Z,100193.69
2019-04-25T01:02:13.460Z,100188.14
2019-04-25T01:04:45.129Z,100196.71
2019-04-25T01:07:19.019Z,100204.45
2019-04-25T01:09:49.957Z,100197.47
2019-04-25T01:12:21.591Z,100196.56
2019-04-25T01:14:52.890Z,100200.29
2019-04-25T01:17:24.334Z,100194.84
2019-04-25T01:20:04.826Z,100202.27
2019-04-25T01:22:35.427Z,100206.44
2019-04-25T01:25:07.521Z,100203.09
2019-04-25T01:27:38.174Z,100197.14
2019-04-25T01:30:09.749Z,100205.03
2019-04-25T01:32:40.411Z,100225.86
2019-04-25T01:35:31.162Z,100230.06
2019-04-25T01:38:03.721Z,100224.23
2019-04-25T01:40:49.402Z,100215.43
2019-04-25T01:43:25.843Z,100222.98
2019-04-25T01:45:57.952Z,100216.78
2019-04-25T01:48:28.800Z,100223.27
2019-04-25T01:50:59.459Z,100220.27
2019-04-25T01:53:30.157Z,100228.55
2019-04-25T01:56:05.218Z,100237.42
2019-04-25T01:58:33.765Z,100244.56
2019-04-25T02:01:05.950Z,100244.84
2019-04-25T02:03:36.724Z,100244.27
2019-04-25T02:06:07.302Z,100241.97
2019-04-25T02:08:37.823Z,100241.04
2019-04-25T02:11:26.596Z,100234.91
2019-04-25T02:13:57.652Z,100232.97
2019-04-25T02:16:28.253Z,100233.31
2019-04-25T02:18:59.821Z,100236.65
2019-04-25T02:21:35.928Z,100243.22
2019-04-25T02:24:06.527Z,100234.08
2019-04-25T02:26:38.258Z,100232.73
2019-04-25T02:29:08.911Z,100230.14
2019-04-25T02:31:39.511Z,100239.77
2019-04-25T02:34:10.098Z,100237.59
2019-04-25T02:36:40.789Z,100230.67
2019-04-25T02:39:18.190Z,100244.45
2019-04-25T02:41:49.039Z,100243.38
2019-04-25T02:44:19.691Z,100239.14
2019-04-25T02:46:57.577Z,100243.47
2019-04-25T02:49:38.653Z,100239.72
2019-04-25T02:52:08.544Z,100249.25
2019-04-25T02:54:38.161Z,100256.81
2019-04-25T02:57:08.755Z,100255.33
2019-04-25T02:59:39.346Z,100255.22
2019-04-25T03:02:09.992Z,100260.00
2019-04-25T03:04:45.500Z,100258.13
2019-04-25T03:07:17.659Z,100253.92
2019-04-25T03:09:48.499Z,100256.63
2019-04-25T03:12:29.049Z,100261.79
2019-04-25T03:14:51.681Z,100260.08
2019-04-25T03:17:24.413Z,100268.53
2019-04-25T03:20:07.930Z,100269.03
2019-04-25T03:22:37.437Z,100256.98
2019-04-25T03:25:11.645Z,100251.29
2019-04-25T03:27:40.892Z,100240.15
2019-04-25T03:30:16.602Z,100247.25
2019-04-25T03:32:45.263Z,100248.88
2019-04-25T03:35:16.079Z,100251.38
2019-04-25T03:37:46.770Z,100244.64
2019-04-25T03:40:23.151Z,100248.63
2019-04-25T03:42:54.092Z,100255.96
2019-04-25T03:45:24.648Z,100249.56
2019-04-25T03:47:56.311Z,100248.97
2019-04-25T03:50:27.035Z,100257.65
2019-04-25T03:52:57.708Z,100250.45
2019-04-25T03:55:28.402Z,100252.48
2019-04-25T03:57:58.985Z,100248.72
2019-04-25T04:00:29.629Z,100247.89
2019-04-25T04:03:03.888Z,100252.31
2019-04-25T04:05:34.560Z,100255.67
2019-04-25T04:08:06.423Z,100245.34
2019-04-25T04:10:37.047Z,100247.53
2019-04-25T04:13:08.491Z,100250.53
2019-04-25T04:15:39.203Z,100244.09
2019-04-25T04:18:17.057Z,100241.98
2019-04-25T04:20:51.683Z,100241.53
2019-04-25T04:23:31.307Z,100248.52
2019-04-25T04:26:03.316Z,100252.91
2019-04-25T04:28:35.018Z,100251.22
2019-04-25T04:31:08.368Z,100254.64
2019-04-25T04:33:39.098Z,100261.75
2019-04-25T04:36:09.791Z,100263.94
2019-04-25T04:38:40.535Z,100264.16
2019-04-25T04:41:11.573Z,100257.53
2019-04-25T04:43:44.134Z,100256.48
2019-04-25T04:46:17.133Z,100253.09
2019-04-25T04:48:47.142Z,100262.17
2019-04-25T04:51:18.746Z,100272.14
2019-04-25T04:53:49.529Z,100271.60
2019-04-25T04:56:20.141Z,100272.98
2019-04-25T04:58:50.792Z,100282.14
2019-04-25T05:01:24.669Z,100279.68
2019-04-25T05:03:59.721Z,100286.78
2019-04-25T05:06:34.609Z,100280.05
2019-04-25T05:09:16.478Z,100290.86
2019-04-25T05:11:47.189Z,100290.63
2019-04-25T05:14:17.870Z,100295.89
2019-04-25T05:16:49.612Z,100298.78
2019-04-25T05:19:20.252Z,100292.94
2019-04-25T05:21:53.591Z,100299.46
2019-04-25T05:24:26.093Z,100306.06
2019-04-25T05:27:00.867Z,100311.08
2019-04-25T05:29:31.663Z,100315.41
2019-04-25T05:32:04.136Z,100306.41
2019-04-25T05:34:34.681Z,100307.38
2019-04-25T05:37:05.374Z,100312.89
2019-04-25T05:39:36.069Z,100300.89
2019-04-25T05:42:08.276Z,100298.09
2019-04-25T05:44:38.952Z,100284.52
2019-04-25T05:47:09.636Z,100301.47
2019-04-25T05:49:40.321Z,100300.81
2019-04-25T05:52:10.884Z,100303.02
2019-04-25T05:54:41.655Z,100301.89
2019-04-25T05:57:13.747Z,100288.23
2019-04-25T05:59:44.435Z,100284.69
2019-04-25T06:02:15.146Z,100284.78
2019-04-25T06:04:45.808Z,100283.73
2019-04-25T06:07:17.938Z,100297.28
2019-04-25T06:10:06.484Z,100298.92
2019-04-25T06:12:41.399Z,100309.86
2019-04-25T06:15:13.245Z,100323.25
2019-04-25T06:17:45.688Z,100338.74
2019-04-25T06:20:18.110Z,100337.59
2019-04-25T06:22:59.463Z,100340.72
2019-04-25T06:25:37.254Z,100329.63
2019-04-25T06:28:10.650Z,100339.38
2019-04-25T06:30:41.326Z,100339.45
2019-04-25T06:33:13.321Z,100350.91
2019-04-25T06:35:44.302Z,100344.67
2019-04-25T06:38:14.963Z,100345.30
2019-04-25T06:40:45.961Z,100348.38
2019-04-25T06:43:16.667Z,100339.28
2019-04-25T06:46:05.353Z,100335.76
2019-04-25T06:48:37.670Z,100335.53
2019-04-25T06:51:08.374Z,100340.81
2019-04-25T06:53:39.012Z,100331.20
2019-04-25T06:56:09.698Z,100337.36
2019-04-25T06:58:40.403Z,100337.36
2019-04-25T07:01:13.487Z,100339.32
2019-04-25T07:03:44.315Z,100334.12
2019-04-25T07:06:16.049Z,100340.42
2019-04-25T07:08:46.718Z,100341.95
2019-04-25T07:11:17.368Z,100342.22
2019-04-25T07:13:47.936Z,100352.70
2019-04-25T07:16:18.640Z,100352.23
2019-04-25T07:18:49.265Z,100360.13
2019-04-25T07:21:19.975Z,100356.07
2019-04-25T07:23:50.574Z,100355.33
2019-04-25T07:26:34.978Z,100361.39
2019-04-25T07:29:25.658Z,100360.91
2019-04-25T07:32:07.777Z,100372.00
2019-04-25T07:34:38.458Z,100374.96
2019-04-25T07:37:09.034Z,100374.84
2019-04-25T07:39:39.812Z,100387.13
2019-04-25T07:42:11.940Z,100403.85
2019-04-25T07:44:52.100Z,100415.33
2019-04-25T07:47:16.108Z,100414.85
2019-04-25T07:49:46.773Z,100412.89
2019-04-25T07:52:17.475Z,100402.53
2019-04-25T07:54:48.157Z,100395.77
2019-04-25T07:57:18.694Z,100385.58
2019-04-25T07:59:51.586Z,100385.31
2019-04-25T08:02:23.294Z,100395.54
2019-04-25T08:04:54.377Z,100387.02
2019-04-25T08:07:28.006Z,100381.77
2019-04-25T08:10:05.711Z,100377.08
2019-04-25T08:12:37.275Z,100372.28
2019-04-25T08:15:09.825Z,100377.70
2019-04-25T08:17:48.061Z,100375.88
2019-04-25T08:20:20.876Z,100387.48
2019-04-25T08:22:58.565Z,100381.69
2019-04-25T08:25:26.185Z,100380.31
2019-04-25T08:27:56.889Z,100387.20
2019-04-25T08:30:27.561Z,100391.64
2019-04-25T08:32:58.212Z,100404.44
2019-04-25T08:35:29.964Z,100392.37
2019-04-25T08:38:05.771Z,100386.15
2019-04-25T08:40:37.698Z,100397.73
2019-04-25T08:43:09.083Z,100415.90
2019-04-25T08:45:39.849Z,100400.45
2019-04-25T08:48:11.403Z,100406.26
2019-04-25T08:50:44.465Z,100409.73
2019-04-25T08:53:15.466Z,100412.42
2019-04-25T08:55:59.892Z,100414.77
2019-04-25T08:58:44.627Z,100418.09
2019-04-25T09:01:17.160Z,100425.08
2019-04-25T09:04:09.066Z,100410.77
2019-04-25T09:06:40.382Z,100411.25
2019-04-25T09:09:10.976Z,100404.23
2019-04-25T09:11:41.630Z,100408.51
2019-04-25T09:14:13.451Z,100394.72
2019-04-25T09:16:45.153Z,100405.06
2019-04-25T09:19:16.596Z,100411.85
2019-04-25T09:21:49.503Z,100409.52
2019-04-25T09:24:25.324Z,100408.41
2019-04-25T09:27:01.689Z,100410.59
2019-04-25T09:29:34.191Z,100411.32
2019-04-25T09:32:04.997Z,100421.20
2019-04-25T09:34:35.753Z,100427.37
2019-04-25T09:37:07.653Z,100418.95
2019-04-25T09:39:46.189Z,100414.00
2019-04-25T09:42:16.875Z,100417.20
2019-04-25T09:44:55.104Z,100410.84
2019-04-25T09:47:26.017Z,100396.83
2019-04-25T09:49:57.605Z,100406.84
2019-04-25T09:52:28.330Z,100396.50
2019-04-25T09:55:00.656Z,100393.27
2019-04-25T09:57:39.072Z,100393.68
2019-04-25T10:00:13.232Z,100398.89
2019-04-25T10:02:44.624Z,100400.91
2019-04-25T10:05:15.450Z,100401.89
2019-04-25T10:07:48.713Z,100405.08
2019-04-25T10:10:18.644Z,100404.23
2019-04-25T10:12:49.986Z,100399.16
2019-04-25T10:15:47.929Z,100396.34
2019-04-25T10:18:18.592Z,100402.20
2019-04-25T10:20:49.503Z,100402.70
2019-04-25T10:23:21.273Z,100398.49
2019-04-25T10:25:53.739Z,100400.12
2019-04-25T10:28:25.482Z,100398.45
2019-04-25T10:30:56.651Z,100396.11
2019-04-25T10:33:27.381Z,100397.23
2019-04-25T10:36:01.578Z,100393.90
2019-04-25T10:38:34.959Z,100392.20
2019-04-25T10:41:08.780Z,100397.81
2019-04-25T10:43:41.778Z,100393.55
2019-04-25T10:46:14.284Z,100392.13
2019-04-25T10:48:46.035Z,100387.86
2019-04-25T10:51:16.905Z,100381.94
2019-04-25T10:53:47.508Z,100380.92
2019-04-25T10:56:18.212Z,100381.71
2019-04-25T10:58:48.971Z,100376.42
2019-04-25T11:01:19.771Z,100375.55
2019-04-25T11:04:01.331Z,100375.14
2019-04-25T11:06:33.652Z,100372.94
2019-04-25T11:09:06.258Z,100369.44
2019-04-25T11:11:38.580Z,100354.74
2019-04-25T11:14:09.280Z,100366.70
2019-04-25T11:16:40.438Z,100353.80
2019-04-25T11:19:11.052Z,100360.92
2019-04-25T11:21:45.194Z,100354.35
2019-04-25T11:24:15.530Z,100355.77
2019-04-25T11:26:48.864Z,100358.29
2019-04-25T11:29:20.145Z,100360.00
2019-04-25T11:31:52.020Z,100362.55
2019-04-25T11:34:25.388Z,100357.67
2019-04-25T11:36:58.579Z,100384.26
2019-04-25T11:39:36.639Z,100386.12
2019-04-25T11:42:23.780Z,100384.97
2019-04-25T11:44:55.579Z,100380.75
2019-04-25T11:47:31.077Z,100369.91
2019-04-25T11:50:04.044Z,100367.05
2019-04-25T11:52:35.176Z,100360.11
2019-04-25T11:55:06.381Z,100357.87
2019-04-25T11:57:38.606Z,100352.96
2019-04-25T12:00:21.637Z,100351.48
2019-04-25T12:02:45.432Z,100342.58
2019-04-25T12:05:16.305Z,100342.08
2019-04-25T12:07:47.991Z,100336.73
2019-04-25T12:10:20.571Z,100319.77
2019-04-25T12:12:55.505Z,100316.59
2019-04-25T12:15:26.695Z,100311.86
2019-04-25T12:17:57.611Z,100304.03
2019-04-25T12:20:28.365Z,100296.35
2019-04-25T12:23:08.116Z,100299.84
2019-04-25T12:25:32.007Z,100299.38
2019-04-25T12:28:04.257Z,100285.54
2019-04-25T12:30:40.030Z,100284.73
2019-04-25T12:33:21.197Z,100287.53
2019-04-25T12:35:47.963Z,100291.48
2019-04-25T12:38:20.450Z,100278.33
2019-04-25T12:40:55.269Z,100294.06
2019-04-25T12:43:27.719Z,100281.21
2019-04-25T12:46:12.031Z,100270.61
2019-04-25T12:48:43.751Z,100273.36
2019-04-25T12:51:14.497Z,100273.49
2019-04-25T12:53:46.505Z,100273.99
2019-04-25T12:56:17.260Z,100275.92
2019-04-25T12:58:47.998Z,100281.07
2019-04-25T13:01:18.756Z,100274.91
2019-04-25T13:03:49.343Z,100281.58
2019-04-25T13:06:20.015Z,100279.70
2019-04-25T13:08:51.146Z,100285.88
2019-04-25T13:11:23.974Z,100273.39
2019-04-25T13:13:54.840Z,100259.87
2019-04-25T13:16:25.514Z,100245.80
2019-04-25T13:18:56.223Z,100244.27
2019-04-25T13:21:26.939Z,100255.20
2019-04-25T13:23:58.065Z,100247.33
2019-04-25T13:26:33.597Z,100252.12
2019-04-25T13:29:24.707Z,100253.30
2019-04-25T13:32:12.452Z,100246.12
2019-04-25T13:34:47.838Z,100249.73
2019-04-25T13:37:18.477Z,100255.05
2019-04-25T13:39:49.154Z,100257.95
2019-04-25T13:42:23.364Z,100263.45
2019-04-25T13:45:06.931Z,100268.25
2019-04-25T13:47:40.703Z,100279.88
2019-04-25T13:50:12.959Z,100278.16
2019-04-25T13:52:44.061Z,100268.21
2019-04-25T13:55:17.531Z,100276.78
2019-04-25T13:58:05.231Z,100275.59
2019-04-25T14:00:36.664Z,100267.20
2019-04-25T14:03:25.775Z,100278.84
2019-04-25T14:06:03.587Z,100278.84
2019-04-25T14:08:34.610Z,100283.80
2019-04-25T14:11:05.692Z,100279.16
2019-04-25T14:13:42.071Z,100281.57
2019-04-25T14:16:28.136Z,100276.77
2019-04-25T14:19:22.531Z,100289.05
2019-04-25T14:21:59.320Z,100278.09
2019-04-25T14:24:36.650Z,100281.02
2019-04-25T14:27:13.649Z,100279.78
2019-04-25T14:29:54.726Z,100272.56
2019-04-25T14:32:31.366Z,100278.55
2019-04-25T14:35:10.685Z,100266.08
2019-04-25T14:37:47.604Z,100272.17
2019-04-25T14:40:21.585Z,100272.91
2019-04-25T14:43:02.270Z,100276.34
2019-04-25T14:45:43.027Z,100266.23
2019-04-25T14:48:20.215Z,100273.23
2019-04-25T14:50:59.504Z,100274.95
2019-04-25T14:53:34.029Z,100283.64
2019-04-25T14:56:32.415Z,100291.49
2019-04-25T14:59:12.867Z,100290.11
2019-04-25T15:01:53.479Z,100298.29
2019-04-25T15:04:33.159Z,100292.94
2019-04-25T15:07:09.107Z,100298.40
2019-04-25T15:09:40.100Z,100292.39
2019-04-25T15:12:12.951Z,100289.84
2019-04-25T15:14:57.196Z,100286.05
2019-04-25T15:17:46.540Z,100289.47
2019-04-25T15:20:11.029Z,100288.46
2019-04-25T15:22:41.818Z,100296.28
2019-04-25T15:25:12.423Z,100301.25
2019-04-25T15:27:43.102Z,100296.47
2019-04-25T15:30:15.645Z,100295.61
2019-04-25T15:32:46.332Z,100301.44
2019-04-25T15:35:18.681Z,100299.34
2019-04-25T15:37:53.900Z,100301.44
2019-04-25T15:40:29.330Z,100299.19
2019-04-25T15:43:01.578Z,100298.80
2019-04-25T15:45:36.709Z,100305.11
2019-04-25T15:48:07.680Z,100306.12
2019-04-25T15:50:38.397Z,100305.23
2019-04-25T15:53:09.244Z,100305.77
2019-04-25T15:55:52.003Z,100302.84
2019-04-25T15:58:22.970Z,100287.13
2019-04-25T16:00:53.774Z,100285.59
2019-04-25T16:03:24.555Z,100284.03
2019-04-25T16:05:55.277Z,100287.63
2019-04-25T16:08:26.634Z,100285.69
2019-04-25T16:10:59.423Z,100293.41
2019-04-25T16:13:34.483Z,100300.70
2019-04-25T16:16:05.517Z,100304.40
2019-04-25T16:18:37.875Z,100304.03
2019-04-25T16:21:08.586Z,100310.77
2019-04-25T16:23:40.303Z,100310.41
2019-04-25T16:26:12.859Z,100302.88
2019-04-25T16:28:43.613Z,100296.73
2019-04-25T16:31:16.335Z,100295.80
2019-04-25T16:33:52.211Z,100301.22
2019-04-25T16:36:22.881Z,100304.38
2019-04-25T16:38:53.576Z,100315.25
2019-04-25T16:41:24.421Z,100323.81
2019-04-25T16:43:56.875Z,100334.36
2019-04-25T16:46:28.767Z,100336.64
2019-04-25T16:48:59.501Z,100342.42
2019-04-25T16:51:30.802Z,100333.83
2019-04-25T16:54:20.044Z,100339.78
2019-04-25T16:56:51.031Z,100362.17
2019-04-25T16:59:21.795Z,100357.16
2019-04-25T17:01:52.473Z,100365.74
2019-04-25T17:04:24.332Z,100365.80
2019-04-25T17:06:55.078Z,100360.70
2019-04-25T17:09:25.792Z,100367.32
2019-04-25T17:11:56.965Z,100377.13
2019-04-25T17:14:39.499Z,100382.00
2019-04-25T17:17:12.291Z,100384.25
2019-04-25T17:19:47.545Z,100380.59
2019-04-25T17:22:18.844Z,100385.27
2019-04-25T17:24:50.811Z,100386.98
2019-04-25T17:27:22.032Z,100403.09
2019-04-25T17:29:53.839Z,100406.27
2019-04-25T17:32:36.674Z,100408.56
2019-04-25T17:35:12.218Z,100404.91
2019-04-25T17:37:52.260Z,100402.70
2019-04-25T17:40:27.252Z,100408.38
2019-04-25T17:43:10.204Z,100411.75
2019-04-25T17:45:37.788Z,100412.41
2019-04-25T17:48:08.479Z,100419.00
2019-04-25T17:50:39.716Z,100436.48
2019-04-25T17:53:10.457Z,100433.25
2019-04-25T17:55:41.585Z,100436.70
2019-04-25T17:58:13.549Z,100439.98
2019-04-25T18:00:45.516Z,100439.55
2019-04-25T18:03:21.992Z,100421.92
2019-04-25T18:05:52.949Z,100414.94
2019-04-25T18:08:23.890Z,100430.98
2019-04-25T18:11:00.600Z,100432.27
2019-04-25T18:13:31.186Z,100439.48
2019-04-25T18:16:03.453Z,100441.08
2019-04-25T18:18:41.862Z,100443.58
2019-04-25T18:21:12.667Z,100438.12
2019-04-25T18:24:02.600Z,100428.70
2019-04-25T18:26:36.716Z,100435.09
2019-04-25T18:29:09.037Z,100432.14
2019-04-25T18:31:39.678Z,100430.05
2019-04-25T18:34:12.018Z,100435.35
2019-04-25T18:36:48.751Z,100447.56
2019-04-25T18:39:21.111Z,100453.27
2019-04-25T18:42:00.628Z,100471.35
2019-04-25T18:44:32.652Z,100488.48
2019-04-25T18:47:20.961Z,100498.34
2019-04-25T18:50:01.957Z,100498.81
2019-04-25T18:52:47.180Z,100489.53
2019-04-25T18:55:29.668Z,100509.39
2019-04-25T18:58:07.670Z,100514.69
2019-04-25T19:00:51.311Z,100525.19
2019-04-25T19:03:32.429Z,100544.66
2019-04-25T19:06:07.843Z,100560.21
2019-04-25T19:08:39.550Z,100585.64
2019-04-25T19:11:10.511Z,100573.79
2019-04-25T19:13:41.223Z,100602.41
2019-04-25T19:16:13.892Z,100620.40
2019-04-25T19:18:46.686Z,100583.15
2019-04-25T19:21:18.040Z,100591.02
2019-04-25T19:23:48.741Z,100613.17
2019-04-25T19:26:24.616Z,100602.97
2019-04-25T19:28:55.358Z,100612.55
2019-04-25T19:31:26.300Z,100617.36
2019-04-25T19:33:56.972Z,100617.02
2019-04-25T19:36:33.648Z,100598.12
2019-04-25T19:39:06.108Z,100593.18
2019-04-25T19:41:48.033Z,100602.45
2019-04-25T19:44:26.327Z,100615.00
2019-04-25T19:47:08.981Z,100600.09
2019-04-25T19:49:40.623Z,100600.70
2019-04-25T19:52:12.259Z,100600.58
2019-04-25T19:54:43.279Z,100608.35
2019-04-25T19:57:14.068Z,100613.64
2019-04-25T19:59:44.782Z,100625.92
2019-04-25T20:02:17.087Z,100640.59
2019-04-25T20:04:49.430Z,100638.48
2019-04-25T20:07:21.741Z,100645.73
2019-04-25T20:10:05.992Z,100646.59
2019-04-25T20:12:38.496Z,100669.12
2019-04-25T20:15:09.323Z,100650.66
2019-04-25T20:17:41.064Z,100661.59
2019-04-25T20:20:12.708Z,100662.03
2019-04-25T20:22:44.054Z,100668.34
2019-04-25T20:25:15.696Z,100662.39
2019-04-25T20:27:46.766Z,100643.50
2019-04-25T20:30:17.999Z,100653.53
2019-04-25T20:32:49.248Z,100673.86
2019-04-25T20:35:20.221Z,100640.50
2019-04-25T20:37:53.417Z,100643.42
2019-04-25T20:40:24.204Z,100651.47
2019-04-25T20:42:54.923Z,100646.59
2019-04-25T20:45:25.596Z,100639.83
2019-04-25T20:47:56.931Z,100657.89
2019-04-25T20:50:27.594Z,100634.18
2019-04-25T20:53:00.383Z,100633.34
2019-04-25T20:55:31.108Z,100642.45
2019-04-25T20:58:01.767Z,100647.00
2019-04-25T21:00:45.103Z,100657.44
2019-04-25T21:03:15.809Z,100631.98
2019-04-25T21:05:55.085Z,100639.02
2019-04-25T21:08:25.836Z,100644.77
2019-04-25T21:10:56.638Z,100648.53
2019-04-25T21:13:31.678Z,100650.84
2019-04-25T21:16:04.023Z,100656.86
2019-04-25T21:18:39.045Z,100650.52
2019-04-25T21:21:13.198Z,100643.14
2019-04-25T21:23:43.895Z,100636.77
2019-04-25T21:26:15.668Z,100631.86
2019-04-25T21:28:46.412Z,100631.66
2019-04-25T21:31:17.189Z,100622.51
2019-04-25T21:33:47.890Z,100616.87
2019-04-25T21:36:19.934Z,100616.97
2019-04-25T21:38:51.351Z,100616.48
2019-04-25T21:41:37.031Z,100608.48
2019-04-25T21:44:08.422Z,100607.89
2019-04-25T21:46:39.116Z,100611.05
2019-04-25T21:49:09.895Z,100608.06
2019-04-25T21:51:40.537Z,100610.17
2019-04-25T21:54:11.254Z,100607.70
2019-04-25T21:56:42.148Z,100605.42
2019-04-25T21:59:13.152Z,100603.98
2019-04-25T22:01:43.909Z,100613.66
2019-04-25T22:04:14.877Z,100624.52
2019-04-25T22:06:47.051Z,100625.52
2019-04-25T22:09:21.157Z,100622.39
2019-04-25T22:12:03.196Z,100642.97
2019-04-25T22:14:35.082Z,100655.14
2019-04-25T22:17:06.873Z,100665.42
2019-04-25T22:19:37.906Z,100659.14
2019-04-25T22:22:08.723Z,100667.81
2019-04-25T22:24:39.412Z,100674.63
2019-04-25T22:27:11.769Z,100674.31
2019-04-25T22:29:44.051Z,100671.72
2019-04-25T22:32:22.101Z,100651.30
2019-04-25T22:34:54.342Z,100647.73
2019-04-25T22:37:27.172Z,100651.55
2019-04-25T22:39:59.775Z,100656.68
2019-04-25T22:42:30.477Z,100661.97
2019-04-25T22:45:01.756Z,100656.68
2019-04-25T22:47:33.923Z,100647.69
2019-04-25T22:50:04.691Z,100632.92
2019-04-25T22:52:35.751Z,100635.83
2019-04-25T22:55:06.666Z,100634.63
2019-04-25T22:57:38.620Z,100623.13
2019-04-25T23:00:11.387Z,100642.83
2019-04-25T23:02:45.621Z,100645.78
2019-04-25T23:05:18.325Z,100630.27
2019-04-25T23:07:55.209Z,100620.47
2019-04-25T23:10:26.163Z,100614.94
2019-04-25T23:12:56.869Z,100613.22
2019-04-25T23:15:27.742Z,100610.13
2019-04-25T23:17:58.869Z,100602.01
2019-04-25T23:20:29.451Z,100619.32
2019-04-25T23:23:00.351Z,100614.42
2019-04-25T23:25:33.706Z,100598.36
2019-04-25T23:28:08.048Z,100596.48
2019-04-25T23:30:40.841Z,100598.95
2019-04-25T23:33:12.562Z,100603.05
2019-04-25T23:35:45.027Z,100619.72
2019-04-25T23:38:16.121Z,100619.01
2019-04-25T23:40:46.844Z,100633.84
2019-04-25T23:43:17.673Z,100639.73
2019-04-25T23:45:48.364Z,100632.17
2019-04-25T23:48:19.170Z,100622.86
2019-04-25T23:50:49.827Z,100616.78
2019-04-25T23:53:20.498Z,100614.95
2019-04-25T23:56:02.833Z,100626.84
2019-04-25T23:58:33.570Z,100636.11
